sensor_id;sensor_type;location;lat;lon;timestamp;temperature;humidity
67186;HTU21D;54116;53.518;49.398;2023-01-15T00:03:55;-13.46;81.52
67186;HTU21D;54116;53.518;49.398;2023-01-15T00:59:09;-13.67;82.79
67186;HTU21D;54116;53.518;49.398;2023-01-15T02:03:56;-13.29;79.59
67186;HTU21D;54116;53.518;49.398;2023-01-15T02:38:10;-13.26;78.74
67186;HTU21D;54116;53.518;49.398;2023-01-15T02:54:18;-13.23;78.79
67186;HTU21D;54116;53.518;49.398;2023-01-15T03:02:24;-13.23;78.76
67186;HTU21D;54116;53.518;49.398;2023-01-15T04:11:02;-12.97;77.84
67186;HTU21D;54116;53.518;49.398;2023-01-15T05:43:06;-12.15;75.73
67186;HTU21D;54116;53.518;49.398;2023-01-15T05:45:33;-12.17;75.76
67186;HTU21D;54116;53.518;49.398;2023-01-15T06:01:55;-11.88;74.74
67186;HTU21D;54116;53.518;49.398;2023-01-15T06:04:22;-11.79;74.74
67186;HTU21D;54116;53.518;49.398;2023-01-15T06:06:51;-11.71;74.36
67186;HTU21D;54116;53.518;49.398;2023-01-15T06:11:41;-11.56;73.94
67186;HTU21D;54116;53.518;49.398;2023-01-15T06:16:44;-11.33;73.28
67186;HTU21D;54116;53.518;49.398;2023-01-15T06:21:22;-11.24;72.25
67186;HTU21D;54116;53.518;49.398;2023-01-15T06:26:14;-11.08;72.95
67186;HTU21D;54116;53.518;49.398;2023-01-15T06:33:37;-10.81;71.80
67186;HTU21D;54116;53.518;49.398;2023-01-15T06:36:11;-10.77;70.80
67186;HTU21D;54116;53.518;49.398;2023-01-15T06:40:51;-10.70;70.96
67186;HTU21D;54116;53.518;49.398;2023-01-15T06:45:37;-10.65;70.21
67186;HTU21D;54116;53.518;49.398;2023-01-15T06:48:25;-10.68;70.01
67186;HTU21D;54116;53.518;49.398;2023-01-15T06:50:52;-10.66;70.67
67186;HTU21D;54116;53.518;49.398;2023-01-15T06:53:19;-10.61;69.94
67186;HTU21D;54116;53.518;49.398;2023-01-15T06:55:47;-10.59;70.13
67186;HTU21D;54116;53.518;49.398;2023-01-15T07:05:12;-10.56;69.90
67186;HTU21D;54116;53.518;49.398;2023-01-15T07:09:59;-10.58;70.07
67186;HTU21D;54116;53.518;49.398;2023-01-15T07:12:25;-10.55;70.10
67186;HTU21D;54116;53.518;49.398;2023-01-15T07:14:52;-10.49;70.25
67186;HTU21D;54116;53.518;49.398;2023-01-15T07:24:19;-10.37;69.61
67186;HTU21D;54116;53.518;49.398;2023-01-15T07:26:45;-10.32;69.00
67186;HTU21D;54116;53.518;49.398;2023-01-15T07:29:12;-10.32;69.24
67186;HTU21D;54116;53.518;49.398;2023-01-15T07:31:39;-10.29;69.20
67186;HTU21D;54116;53.518;49.398;2023-01-15T07:34:05;-10.25;69.37
67186;HTU21D;54116;53.518;49.398;2023-01-15T07:36:32;-10.23;69.02
67186;HTU21D;54116;53.518;49.398;2023-01-15T07:38:58;-10.17;69.03
67186;HTU21D;54116;53.518;49.398;2023-01-15T07:41:24;-10.18;68.83
67186;HTU21D;54116;53.518;49.398;2023-01-15T07:44:10;-10.14;69.03
67186;HTU21D;54116;53.518;49.398;2023-01-15T07:49:10;-10.05;68.76
67186;HTU21D;54116;53.518;49.398;2023-01-15T07:54:08;-10.00;68.23
67186;HTU21D;54116;53.518;49.398;2023-01-15T07:56:34;-9.92;68.08
67186;HTU21D;54116;53.518;49.398;2023-01-15T07:59:01;-9.88;68.17
67186;HTU21D;54116;53.518;49.398;2023-01-15T08:01:27;-9.87;68.68
67186;HTU21D;54116;53.518;49.398;2023-01-15T08:03:53;-9.84;68.10
67186;HTU21D;54116;53.518;49.398;2023-01-15T08:06:19;-9.86;68.12
67186;HTU21D;54116;53.518;49.398;2023-01-15T08:08:46;-9.82;68.17
67186;HTU21D;54116;53.518;49.398;2023-01-15T08:11:12;-9.87;68.48
67186;HTU21D;54116;53.518;49.398;2023-01-15T08:13:57;-9.89;68.09
67186;HTU21D;54116;53.518;49.398;2023-01-15T08:16:41;-9.85;68.84
67186;HTU21D;54116;53.518;49.398;2023-01-15T08:19:07;-9.84;68.04
67186;HTU21D;54116;53.518;49.398;2023-01-15T08:21:34;-9.84;68.50
67186;HTU21D;54116;53.518;49.398;2023-01-15T08:24:00;-9.81;68.16
67186;HTU21D;54116;53.518;49.398;2023-01-15T08:26:26;-9.81;68.20
67186;HTU21D;54116;53.518;49.398;2023-01-15T08:28:54;-9.77;68.22
67186;HTU21D;54116;53.518;49.398;2023-01-15T08:31:21;-9.74;67.47
67186;HTU21D;54116;53.518;49.398;2023-01-15T08:33:47;-9.79;67.81
67186;HTU21D;54116;53.518;49.398;2023-01-15T08:36:14;-9.82;67.93
67186;HTU21D;54116;53.518;49.398;2023-01-15T08:38:41;-9.72;68.20
67186;HTU21D;54116;53.518;49.398;2023-01-15T08:41:08;-9.64;67.75
67186;HTU21D;54116;53.518;49.398;2023-01-15T08:43:34;-9.55;67.51
67186;HTU21D;54116;53.518;49.398;2023-01-15T08:46:03;-9.47;67.46
67186;HTU21D;54116;53.518;49.398;2023-01-15T08:48:31;-9.42;67.24
67186;HTU21D;54116;53.518;49.398;2023-01-15T08:50:58;-9.38;67.04
67186;HTU21D;54116;53.518;49.398;2023-01-15T08:53:24;-9.37;67.59
67186;HTU21D;54116;53.518;49.398;2023-01-15T08:55:51;-9.34;66.99
67186;HTU21D;54116;53.518;49.398;2023-01-15T08:58:17;-9.33;67.04
67186;HTU21D;54116;53.518;49.398;2023-01-15T09:00:43;-9.24;66.94
67186;HTU21D;54116;53.518;49.398;2023-01-15T09:03:10;-9.27;66.20
67186;HTU21D;54116;53.518;49.398;2023-01-15T09:05:36;-9.29;66.40
67186;HTU21D;54116;53.518;49.398;2023-01-15T09:08:04;-9.23;66.84
67186;HTU21D;54116;53.518;49.398;2023-01-15T09:10:31;-9.17;66.51
67186;HTU21D;54116;53.518;49.398;2023-01-15T09:13:01;-9.14;66.70
67186;HTU21D;54116;53.518;49.398;2023-01-15T09:15:29;-9.04;66.84
67186;HTU21D;54116;53.518;49.398;2023-01-15T09:17:56;-8.99;66.10
67186;HTU21D;54116;53.518;49.398;2023-01-15T09:20:23;-8.94;65.40
67186;HTU21D;54116;53.518;49.398;2023-01-15T09:22:50;-8.93;65.98
67186;HTU21D;54116;53.518;49.398;2023-01-15T09:25:16;-8.84;65.88
67186;HTU21D;54116;53.518;49.398;2023-01-15T09:27:45;-8.81;65.72
67186;HTU21D;54116;53.518;49.398;2023-01-15T09:30:19;-8.83;65.24
67186;HTU21D;54116;53.518;49.398;2023-01-15T09:32:46;-8.84;64.08
67186;HTU21D;54116;53.518;49.398;2023-01-15T09:35:13;-8.88;65.43
67186;HTU21D;54116;53.518;49.398;2023-01-15T09:37:39;-8.82;65.05
67186;HTU21D;54116;53.518;49.398;2023-01-15T09:40:06;-8.83;65.58
67186;HTU21D;54116;53.518;49.398;2023-01-15T09:42:57;-8.87;64.95
67186;HTU21D;54116;53.518;49.398;2023-01-15T09:45:39;-8.84;64.85
67186;HTU21D;54116;53.518;49.398;2023-01-15T09:55:49;-8.80;65.04
67186;HTU21D;54116;53.518;49.398;2023-01-15T09:58:20;-8.78;64.76
67186;HTU21D;54116;53.518;49.398;2023-01-15T10:00:49;-8.81;64.73
67186;HTU21D;54116;53.518;49.398;2023-01-15T10:03:34;-8.83;64.62
67186;HTU21D;54116;53.518;49.398;2023-01-15T10:06:14;-8.73;65.06
67186;HTU21D;54116;53.518;49.398;2023-01-15T10:08:47;-8.73;64.41
67186;HTU21D;54116;53.518;49.398;2023-01-15T10:13:46;-8.62;64.34
67186;HTU21D;54116;53.518;49.398;2023-01-15T10:16:40;-8.57;64.71
67186;HTU21D;54116;53.518;49.398;2023-01-15T10:19:07;-8.54;64.65
67186;HTU21D;54116;53.518;49.398;2023-01-15T10:22:16;-8.53;64.05
67186;HTU21D;54116;53.518;49.398;2023-01-15T10:24:56;-8.50;64.36
67186;HTU21D;54116;53.518;49.398;2023-01-15T10:27:24;-8.45;64.63
67186;HTU21D;54116;53.518;49.398;2023-01-15T10:29:57;-8.44;65.10
67186;HTU21D;54116;53.518;49.398;2023-01-15T10:35:22;-8.41;64.05
67186;HTU21D;54116;53.518;49.398;2023-01-15T10:37:58;-8.44;62.98
67186;HTU21D;54116;53.518;49.398;2023-01-15T10:40:38;-8.42;64.00
67186;HTU21D;54116;53.518;49.398;2023-01-15T10:43:17;-8.43;63.44
67186;HTU21D;54116;53.518;49.398;2023-01-15T10:45:51;-8.44;63.51
67186;HTU21D;54116;53.518;49.398;2023-01-15T10:51:01;-8.53;63.23
67186;HTU21D;54116;53.518;49.398;2023-01-15T10:54:02;-8.54;63.19
67186;HTU21D;54116;53.518;49.398;2023-01-15T10:59:38;-8.53;63.88
67186;HTU21D;54116;53.518;49.398;2023-01-15T11:02:21;-8.52;63.40
67186;HTU21D;54116;53.518;49.398;2023-01-15T11:04:48;-8.51;63.64
67186;HTU21D;54116;53.518;49.398;2023-01-15T11:07:15;-8.49;63.85
67186;HTU21D;54116;53.518;49.398;2023-01-15T11:09:42;-8.44;63.40
67186;HTU21D;54116;53.518;49.398;2023-01-15T11:14:45;-8.40;63.55
67186;HTU21D;54116;53.518;49.398;2023-01-15T11:17:43;-8.40;63.34
67186;HTU21D;54116;53.518;49.398;2023-01-15T11:20:45;-8.39;63.73
67186;HTU21D;54116;53.518;49.398;2023-01-15T11:23:15;-8.41;63.04
67186;HTU21D;54116;53.518;49.398;2023-01-15T11:25:52;-8.43;63.13
67186;HTU21D;54116;53.518;49.398;2023-01-15T11:28:31;-8.45;63.13
67186;HTU21D;54116;53.518;49.398;2023-01-15T11:31:00;-8.46;62.65
67186;HTU21D;54116;53.518;49.398;2023-01-15T11:33:27;-8.46;62.94
67186;HTU21D;54116;53.518;49.398;2023-01-15T11:36:01;-8.50;62.95
67186;HTU21D;54116;53.518;49.398;2023-01-15T11:38:30;-8.52;62.43
67186;HTU21D;54116;53.518;49.398;2023-01-15T11:41:02;-8.53;62.57
67186;HTU21D;54116;53.518;49.398;2023-01-15T11:43:30;-8.55;62.14
67186;HTU21D;54116;53.518;49.398;2023-01-15T11:49:19;-8.50;63.20
67186;HTU21D;54116;53.518;49.398;2023-01-15T11:52:07;-8.49;62.31
67186;HTU21D;54116;53.518;49.398;2023-01-15T11:54:37;-8.44;61.35
67186;HTU21D;54116;53.518;49.398;2023-01-15T11:57:04;-8.45;61.86
67186;HTU21D;54116;53.518;49.398;2023-01-15T11:59:32;-8.52;62.02
67186;HTU21D;54116;53.518;49.398;2023-01-15T12:02:16;-8.55;62.68
67186;HTU21D;54116;53.518;49.398;2023-01-15T12:04:53;-8.58;62.11
67186;HTU21D;54116;53.518;49.398;2023-01-15T12:07:22;-8.62;62.81
67186;HTU21D;54116;53.518;49.398;2023-01-15T12:10:15;-8.68;62.58
67186;HTU21D;54116;53.518;49.398;2023-01-15T12:13:05;-8.77;63.27
67186;HTU21D;54116;53.518;49.398;2023-01-15T12:15:55;-8.82;63.07
67186;HTU21D;54116;53.518;49.398;2023-01-15T12:18:49;-8.84;62.98
67186;HTU21D;54116;53.518;49.398;2023-01-15T12:24:16;-8.95;63.41
67186;HTU21D;54116;53.518;49.398;2023-01-15T12:29:43;-8.99;63.28
67186;HTU21D;54116;53.518;49.398;2023-01-15T12:32:14;-8.94;62.31
67186;HTU21D;54116;53.518;49.398;2023-01-15T12:34:53;-8.97;62.64
67186;HTU21D;54116;53.518;49.398;2023-01-15T12:37:33;-8.93;62.04
67186;HTU21D;54116;53.518;49.398;2023-01-15T12:42:45;-8.92;62.07
67186;HTU21D;54116;53.518;49.398;2023-01-15T12:45:40;-8.85;61.41
67186;HTU21D;54116;53.518;49.398;2023-01-15T12:50:46;-8.87;61.99
67186;HTU21D;54116;53.518;49.398;2023-01-15T12:58:46;-8.88;61.56
67186;HTU21D;54116;53.518;49.398;2023-01-15T13:01:25;-8.83;61.28
67186;HTU21D;54116;53.518;49.398;2023-01-15T13:04:17;-8.78;60.69
67186;HTU21D;54116;53.518;49.398;2023-01-15T13:06:52;-8.75;60.86
67186;HTU21D;54116;53.518;49.398;2023-01-15T13:09:31;-8.67;60.22
67186;HTU21D;54116;53.518;49.398;2023-01-15T13:12:00;-8.57;59.87
67186;HTU21D;54116;53.518;49.398;2023-01-15T13:14:27;-8.50;59.58
67186;HTU21D;54116;53.518;49.398;2023-01-15T13:19:57;-8.48;59.09
67186;HTU21D;54116;53.518;49.398;2023-01-15T13:22:28;-8.54;59.64
67186;HTU21D;54116;53.518;49.398;2023-01-15T13:35:46;-8.97;61.48
67186;HTU21D;54116;53.518;49.398;2023-01-15T13:38:18;-9.09;61.79
67186;HTU21D;54116;53.518;49.398;2023-01-15T13:40:48;-9.11;61.74
67186;HTU21D;54116;53.518;49.398;2023-01-15T13:43:32;-9.11;61.85
67186;HTU21D;54116;53.518;49.398;2023-01-15T13:46:02;-9.04;61.30
67186;HTU21D;54116;53.518;49.398;2023-01-15T13:48:48;-8.97;61.01
67186;HTU21D;54116;53.518;49.398;2023-01-15T13:51:33;-8.96;61.09
67186;HTU21D;54116;53.518;49.398;2023-01-15T13:54:14;-8.85;60.12
67186;HTU21D;54116;53.518;49.398;2023-01-15T13:56:42;-8.83;60.03
67186;HTU21D;54116;53.518;49.398;2023-01-15T13:59:41;-8.81;60.37
67186;HTU21D;54116;53.518;49.398;2023-01-15T14:02:29;-8.77;59.83
67186;HTU21D;54116;53.518;49.398;2023-01-15T14:04:56;-8.68;59.07
67186;HTU21D;54116;53.518;49.398;2023-01-15T14:07:34;-8.65;59.27
67186;HTU21D;54116;53.518;49.398;2023-01-15T14:32:51;-8.72;60.02
67186;HTU21D;54116;53.518;49.398;2023-01-15T14:35:23;-8.71;60.12
67186;HTU21D;54116;53.518;49.398;2023-01-15T14:38:03;-8.64;59.01
67186;HTU21D;54116;53.518;49.398;2023-01-15T14:40:32;-8.58;59.43
67186;HTU21D;54116;53.518;49.398;2023-01-15T14:43:16;-8.63;59.65
67186;HTU21D;54116;53.518;49.398;2023-01-15T14:45:45;-8.65;60.02
67186;HTU21D;54116;53.518;49.398;2023-01-15T14:51:21;-8.75;60.99
67186;HTU21D;54116;53.518;49.398;2023-01-15T14:54:05;-8.72;60.32
67186;HTU21D;54116;53.518;49.398;2023-01-15T14:56:58;-8.73;61.02
67186;HTU21D;54116;53.518;49.398;2023-01-15T14:59:33;-8.75;61.02
67186;HTU21D;54116;53.518;49.398;2023-01-15T15:02:17;-8.73;60.83
67186;HTU21D;54116;53.518;49.398;2023-01-15T15:04:44;-8.63;59.60
67186;HTU21D;54116;53.518;49.398;2023-01-15T15:07:16;-8.54;59.71
67186;HTU21D;54116;53.518;49.398;2023-01-15T15:12:43;-8.68;60.25
67186;HTU21D;54116;53.518;49.398;2023-01-15T15:15:27;-8.71;60.60
67186;HTU21D;54116;53.518;49.398;2023-01-15T15:20:32;-8.75;60.76
67186;HTU21D;54116;53.518;49.398;2023-01-15T15:26:28;-8.72;60.40
67186;HTU21D;54116;53.518;49.398;2023-01-15T15:28:57;-8.71;60.75
67186;HTU21D;54116;53.518;49.398;2023-01-15T15:31:24;-8.73;60.71
67186;HTU21D;54116;53.518;49.398;2023-01-15T15:33:53;-8.75;60.57
67186;HTU21D;54116;53.518;49.398;2023-01-15T15:36:21;-8.73;60.74
67186;HTU21D;54116;53.518;49.398;2023-01-15T15:39:03;-8.83;60.87
67186;HTU21D;54116;53.518;49.398;2023-01-15T15:41:31;-8.84;61.40
67186;HTU21D;54116;53.518;49.398;2023-01-15T15:44:34;-8.94;61.37
67186;HTU21D;54116;53.518;49.398;2023-01-15T15:47:24;-8.96;61.77
67186;HTU21D;54116;53.518;49.398;2023-01-15T15:50:42;-9.00;62.08
67186;HTU21D;54116;53.518;49.398;2023-01-15T15:53:16;-9.00;62.50
67186;HTU21D;54116;53.518;49.398;2023-01-15T15:55:43;-9.07;62.45
67186;HTU21D;54116;53.518;49.398;2023-01-15T15:58:23;-8.99;61.49
67186;HTU21D;54116;53.518;49.398;2023-01-15T16:00:51;-8.94;61.63
67186;HTU21D;54116;53.518;49.398;2023-01-15T16:03:21;-8.88;61.65
67186;HTU21D;54116;53.518;49.398;2023-01-15T16:06:01;-8.86;61.25
67186;HTU21D;54116;53.518;49.398;2023-01-15T16:08:29;-8.93;61.61
67186;HTU21D;54116;53.518;49.398;2023-01-15T16:10:59;-9.01;61.72
67186;HTU21D;54116;53.518;49.398;2023-01-15T16:13:31;-9.07;62.12
67186;HTU21D;54116;53.518;49.398;2023-01-15T16:16:00;-9.13;61.81
67186;HTU21D;54116;53.518;49.398;2023-01-15T16:18:35;-9.15;62.15
67186;HTU21D;54116;53.518;49.398;2023-01-15T16:21:07;-9.20;62.63
67186;HTU21D;54116;53.518;49.398;2023-01-15T16:23:33;-9.15;62.36
67186;HTU21D;54116;53.518;49.398;2023-01-15T16:28:37;-9.10;61.82
67186;HTU21D;54116;53.518;49.398;2023-01-15T16:31:09;-9.12;62.25
67186;HTU21D;54116;53.518;49.398;2023-01-15T16:33:36;-9.17;62.50
67186;HTU21D;54116;53.518;49.398;2023-01-15T16:36:04;-9.25;62.41
67186;HTU21D;54116;53.518;49.398;2023-01-15T16:38:39;-9.25;62.62
67186;HTU21D;54116;53.518;49.398;2023-01-15T16:41:14;-9.29;62.87
67186;HTU21D;54116;53.518;49.398;2023-01-15T16:43:56;-9.37;63.08
67186;HTU21D;54116;53.518;49.398;2023-01-15T16:46:25;-9.44;63.27
67186;HTU21D;54116;53.518;49.398;2023-01-15T16:51:46;-9.48;63.05
67186;HTU21D;54116;53.518;49.398;2023-01-15T16:56:57;-9.53;63.12
67186;HTU21D;54116;53.518;49.398;2023-01-15T17:02:04;-9.60;63.37
67186;HTU21D;54116;53.518;49.398;2023-01-15T17:04:38;-9.56;63.61
67186;HTU21D;54116;53.518;49.398;2023-01-15T17:09:43;-9.47;63.16
67186;HTU21D;54116;53.518;49.398;2023-01-15T17:12:30;-9.49;63.15
67186;HTU21D;54116;53.518;49.398;2023-01-15T17:20:12;-9.68;63.82
67186;HTU21D;54116;53.518;49.398;2023-01-15T17:22:44;-9.70;64.10
67186;HTU21D;54116;53.518;49.398;2023-01-15T17:27:49;-9.79;64.27
67186;HTU21D;54116;53.518;49.398;2023-01-15T17:30:16;-9.70;63.95
67186;HTU21D;54116;53.518;49.398;2023-01-15T17:32:42;-9.60;63.11
67186;HTU21D;54116;53.518;49.398;2023-01-15T17:35:37;-9.56;63.11
67186;HTU21D;54116;53.518;49.398;2023-01-15T17:38:04;-9.59;63.37
67186;HTU21D;54116;53.518;49.398;2023-01-15T17:40:32;-9.71;63.64
67186;HTU21D;54116;53.518;49.398;2023-01-15T17:42:59;-9.77;63.55
67186;HTU21D;54116;53.518;49.398;2023-01-15T17:45:27;-9.79;64.04
67186;HTU21D;54116;53.518;49.398;2023-01-15T17:47:54;-9.62;62.79
67186;HTU21D;54116;53.518;49.398;2023-01-15T17:50:20;-9.45;62.19
67186;HTU21D;54116;53.518;49.398;2023-01-15T17:52:47;-9.41;62.18
67186;HTU21D;54116;53.518;49.398;2023-01-15T17:55:16;-9.42;62.24
67186;HTU21D;54116;53.518;49.398;2023-01-15T17:58:01;-9.47;62.37
67186;HTU21D;54116;53.518;49.398;2023-01-15T18:00:46;-9.40;62.60
67186;HTU21D;54116;53.518;49.398;2023-01-15T18:03:32;-9.37;62.37
67186;HTU21D;54116;53.518;49.398;2023-01-15T18:06:20;-9.36;62.02
67186;HTU21D;54116;53.518;49.398;2023-01-15T18:08:53;-9.37;62.26
67186;HTU21D;54116;53.518;49.398;2023-01-15T18:11:20;-9.45;62.82
67186;HTU21D;54116;53.518;49.398;2023-01-15T18:13:47;-9.54;62.93
67186;HTU21D;54116;53.518;49.398;2023-01-15T18:16:14;-9.56;63.35
67186;HTU21D;54116;53.518;49.398;2023-01-15T18:18:42;-9.61;63.21
67186;HTU21D;54116;53.518;49.398;2023-01-15T18:21:09;-9.63;63.53
67186;HTU21D;54116;53.518;49.398;2023-01-15T18:23:36;-9.68;63.54
67186;HTU21D;54116;53.518;49.398;2023-01-15T18:26:08;-9.78;64.34
67186;HTU21D;54116;53.518;49.398;2023-01-15T18:28:35;-9.83;63.85
67186;HTU21D;54116;53.518;49.398;2023-01-15T18:31:02;-9.77;64.26
67186;HTU21D;54116;53.518;49.398;2023-01-15T18:33:28;-9.83;64.34
67186;HTU21D;54116;53.518;49.398;2023-01-15T18:36:24;-9.79;64.51
67186;HTU21D;54116;53.518;49.398;2023-01-15T18:38:50;-9.75;64.05
67186;HTU21D;54116;53.518;49.398;2023-01-15T18:41:19;-9.75;63.65
67186;HTU21D;54116;53.518;49.398;2023-01-15T18:44:01;-9.71;63.91
67186;HTU21D;54116;53.518;49.398;2023-01-15T18:46:47;-9.77;64.05
67186;HTU21D;54116;53.518;49.398;2023-01-15T18:49:15;-9.79;64.33
67186;HTU21D;54116;53.518;49.398;2023-01-15T18:51:41;-9.78;65.01
67186;HTU21D;54116;53.518;49.398;2023-01-15T18:54:07;-9.75;63.98
67186;HTU21D;54116;53.518;49.398;2023-01-15T18:56:35;-9.77;64.68
67186;HTU21D;54116;53.518;49.398;2023-01-15T18:59:12;-9.86;64.66
67186;HTU21D;54116;53.518;49.398;2023-01-15T19:01:40;-9.90;65.47
67186;HTU21D;54116;53.518;49.398;2023-01-15T19:04:07;-10.03;65.71
67186;HTU21D;54116;53.518;49.398;2023-01-15T19:06:37;-10.10;66.38
67186;HTU21D;54116;53.518;49.398;2023-01-15T19:09:04;-10.04;66.46
67186;HTU21D;54116;53.518;49.398;2023-01-15T19:11:30;-10.13;66.68
67186;HTU21D;54116;53.518;49.398;2023-01-15T19:13:57;-10.12;66.76
67186;HTU21D;54116;53.518;49.398;2023-01-15T19:16:42;-10.15;67.05
67186;HTU21D;54116;53.518;49.398;2023-01-15T19:19:26;-10.16;67.34
67186;HTU21D;54116;53.518;49.398;2023-01-15T19:21:53;-10.22;67.04
67186;HTU21D;54116;53.518;49.398;2023-01-15T19:24:38;-10.38;67.78
67186;HTU21D;54116;53.518;49.398;2023-01-15T19:27:05;-10.46;68.00
67186;HTU21D;54116;53.518;49.398;2023-01-15T19:29:31;-10.38;68.34
67186;HTU21D;54116;53.518;49.398;2023-01-15T19:31:58;-10.30;67.43
67186;HTU21D;54116;53.518;49.398;2023-01-15T19:34:24;-10.25;67.46
67186;HTU21D;54116;53.518;49.398;2023-01-15T19:36:51;-10.21;67.17
67186;HTU21D;54116;53.518;49.398;2023-01-15T19:39:17;-10.23;67.82
67186;HTU21D;54116;53.518;49.398;2023-01-15T19:41:43;-10.28;68.29
67186;HTU21D;54116;53.518;49.398;2023-01-15T19:44:28;-10.40;68.58
67186;HTU21D;54116;53.518;49.398;2023-01-15T19:47:14;-10.61;69.19
67186;HTU21D;54116;53.518;49.398;2023-01-15T19:49:59;-10.67;69.94
67186;HTU21D;54116;53.518;49.398;2023-01-15T19:52:48;-10.63;69.88
67186;HTU21D;54116;53.518;49.398;2023-01-15T19:55:15;-10.62;70.10
67186;HTU21D;54116;53.518;49.398;2023-01-15T19:57:46;-10.75;70.64
67186;HTU21D;54116;53.518;49.398;2023-01-15T20:00:16;-10.84;70.93
67186;HTU21D;54116;53.518;49.398;2023-01-15T20:02:44;-10.92;71.73
67186;HTU21D;54116;53.518;49.398;2023-01-15T20:05:13;-10.96;71.80
67186;HTU21D;54116;53.518;49.398;2023-01-15T20:07:40;-10.89;72.10
67186;HTU21D;54116;53.518;49.398;2023-01-15T20:10:13;-10.85;71.95
67186;HTU21D;54116;53.518;49.398;2023-01-15T20:12:40;-10.85;71.67
67186;HTU21D;54116;53.518;49.398;2023-01-15T20:15:25;-10.82;71.98
67186;HTU21D;54116;53.518;49.398;2023-01-15T20:17:52;-10.82;72.06
67186;HTU21D;54116;53.518;49.398;2023-01-15T20:20:19;-10.80;72.24
67186;HTU21D;54116;53.518;49.398;2023-01-15T20:22:46;-10.86;71.64
67186;HTU21D;54116;53.518;49.398;2023-01-15T20:25:12;-10.95;72.71
67186;HTU21D;54116;53.518;49.398;2023-01-15T20:27:40;-11.08;73.22
67186;HTU21D;54116;53.518;49.398;2023-01-15T20:30:09;-11.09;73.59
67186;HTU21D;54116;53.518;49.398;2023-01-15T20:32:37;-11.15;73.80
67186;HTU21D;54116;53.518;49.398;2023-01-15T20:35:06;-11.27;73.97
67186;HTU21D;54116;53.518;49.398;2023-01-15T20:37:33;-11.33;74.67
67186;HTU21D;54116;53.518;49.398;2023-01-15T20:39:59;-11.32;74.54
67186;HTU21D;54116;53.518;49.398;2023-01-15T20:42:26;-11.33;74.61
67186;HTU21D;54116;53.518;49.398;2023-01-15T20:45:11;-11.33;74.77
67186;HTU21D;54116;53.518;49.398;2023-01-15T20:47:39;-11.33;74.77
67186;HTU21D;54116;53.518;49.398;2023-01-15T20:52:50;-11.26;74.60
67186;HTU21D;54116;53.518;49.398;2023-01-15T20:57:35;-11.46;75.09
67186;HTU21D;54116;53.518;49.398;2023-01-15T21:09:12;-11.64;76.27
67186;HTU21D;54116;53.518;49.398;2023-01-15T21:13:51;-11.73;76.62
67186;HTU21D;54116;53.518;49.398;2023-01-15T21:16:19;-11.71;76.61
67186;HTU21D;54116;53.518;49.398;2023-01-15T21:18:45;-11.79;77.27
67186;HTU21D;54116;53.518;49.398;2023-01-15T21:23:39;-11.98;77.69
67186;HTU21D;54116;53.518;49.398;2023-01-15T21:29:04;-11.88;78.03
67186;HTU21D;54116;53.518;49.398;2023-01-15T21:47:24;-11.74;78.00
67186;HTU21D;54116;53.518;49.398;2023-01-15T22:26:19;-11.88;78.85
67186;HTU21D;54116;53.518;49.398;2023-01-15T22:46:45;-11.88;79.06
67186;HTU21D;54116;53.518;49.398;2023-01-15T23:27:20;-12.54;81.32
67186;HTU21D;54116;53.518;49.398;2023-01-15T23:49:55;-12.65;83.49
